Time;durP1;ratioP1;P1;durP2;ratioP2;P2;SDS_P1;SDS_P2;PMS_P1;PMS_P2;Temp;Humidity;BMP_temperature;BMP_pressure;BME280_temperature;BME280_humidity;BME280_pressure;Samples;Min_cycle;Max_cycle;Signal;HPM_P1;HPM_P2
2021/03/21 00:01:43;;;;;;;22.97;11.70;;;;;;;-0.40;69.11;99665.75;128169;1111;22922;-63
2021/03/21 00:04:13;;;;;;;19.90;11.47;;;;;;;-0.40;69.09;99671.11;128350;1112;22899;-63
2021/03/21 00:06:56;;;;;;;21.40;12.07;;;;;;;-0.41;69.12;99670.27;128219;1111;23457;-63
2021/03/21 00:09:24;;;;;;;20.77;10.93;;;;;;;-0.42;70.27;99671.28;128342;1112;23059;-62
2021/03/21 00:11:51;;;;;;;18.27;10.03;;;;;;;-0.44;70.33;99662.63;128115;1111;22841;-62
2021/03/21 00:14:19;;;;;;;23.70;10.67;;;;;;;-0.45;69.93;99660.97;128322;1112;22885;-62
2021/03/21 00:16:47;;;;;;;18.13;8.40;;;;;;;-0.49;70.12;99661.51;128183;1111;24219;-62
2021/03/21 00:19:14;;;;;;;16.30;9.03;;;;;;;-0.54;69.80;99658.55;128332;1111;22938;-63
2021/03/21 00:21:41;;;;;;;14.93;8.70;;;;;;;-0.55;69.58;99665.73;128208;1111;22879;-62
2021/03/21 00:24:09;;;;;;;17.00;9.33;;;;;;;-0.57;70.35;99657.06;128306;1111;23907;-62
2021/03/21 00:26:36;;;;;;;22.53;8.93;;;;;;;-0.55;70.34;99654.20;128297;1111;22857;-63
2021/03/21 00:29:05;;;;;;;20.30;11.43;;;;;;;-0.56;69.89;99650.69;128151;1111;24140;-63
2021/03/21 00:31:33;;;;;;;22.93;13.33;;;;;;;-0.54;69.95;99648.67;128266;1111;23002;-63
2021/03/21 00:34:01;;;;;;;26.30;14.07;;;;;;;-0.54;70.31;99647.84;128161;1110;22822;-63
2021/03/21 00:36:29;;;;;;;27.57;14.03;;;;;;;-0.56;69.42;99650.69;128344;1111;23701;-63
2021/03/21 00:38:56;;;;;;;28.40;14.87;;;;;;;-0.58;69.72;99647.40;128129;1111;22849;-63
2021/03/21 00:41:26;;;;;;;37.70;15.90;;;;;;;-0.61;70.09;99647.76;128344;1111;22884;-63
2021/03/21 00:43:55;;;;;;;49.60;19.67;;;;;;;-0.62;69.60;99642.59;128207;1111;23288;-63
2021/03/21 00:46:23;;;;;;;50.40;17.10;;;;;;;-0.63;70.35;99641.75;128310;1110;22972;-62
2021/03/21 00:48:50;;;;;;;62.53;20.83;;;;;;;-0.66;69.83;99641.28;128155;1112;24085;-62
2021/03/21 00:51:18;;;;;;;106.13;28.13;;;;;;;-0.69;69.90;99639.80;128280;1111;23043;-63
2021/03/21 00:53:46;;;;;;;93.10;28.10;;;;;;;-0.70;70.34;99640.81;128209;1111;23035;-63
2021/03/21 00:56:32;;;;;;;76.40;25.30;;;;;;;-0.72;70.34;99640.16;128266;1111;22855;-64
2021/03/21 00:59:00;;;;;;;83.80;25.57;;;;;;;-0.76;69.97;99644.23;128153;1111;22849;-64
2021/03/21 01:01:27;;;;;;;67.67;21.17;;;;;;;-0.78;70.22;99641.73;128319;1111;22836;-64
2021/03/21 01:03:56;;;;;;;69.33;23.10;;;;;;;-0.82;70.65;99640.43;128190;1111;22888;-64
2021/03/21 01:06:23;;;;;;;45.40;17.83;;;;;;;-0.83;69.80;99637.94;128355;1110;23574;-64
2021/03/21 01:08:53;;;;;;;34.37;15.53;;;;;;;-0.87;71.01;99633.98;128167;1110;22909;-64
2021/03/21 01:11:27;;;;;;;35.13;13.23;;;;;;;-0.90;70.58;99640.52;128349;1111;22891;-64
2021/03/21 01:13:55;;;;;;;30.93;14.33;;;;;;;-0.90;71.05;99642.36;128191;1111;23834;-65
2021/03/21 01:16:34;;;;;;;34.83;13.97;;;;;;;-0.93;70.33;99640.05;128351;1111;22918;-64
2021/03/21 01:19:03;;;;;;;24.93;11.27;;;;;;;-0.95;70.64;99634.04;128203;1111;22884;-64
2021/03/21 01:21:32;;;;;;;29.47;12.03;;;;;;;-0.97;70.62;99625.36;128325;1111;22829;-64
2021/03/21 01:24:00;;;;;;;26.70;12.90;;;;;;;-1.00;71.30;99637.25;128281;1111;23561;-64
2021/03/21 01:26:28;;;;;;;29.10;12.83;;;;;;;-1.02;70.84;99625.09;128307;1111;23354;-64
2021/03/21 01:28:57;;;;;;;26.77;12.30;;;;;;;-1.05;71.35;99631.63;128275;1111;23049;-64
2021/03/21 01:31:25;;;;;;;32.83;13.27;;;;;;;-1.04;71.36;99625.27;128206;1112;22845;-64
2021/03/21 01:33:53;;;;;;;29.93;12.73;;;;;;;-1.07;71.08;99630.98;128328;1112;23000;-65
2021/03/21 01:36:33;;;;;;;30.07;13.83;;;;;;;-1.10;71.07;99615.29;128210;1112;22883;-64
2021/03/21 01:39:04;;;;;;;22.33;11.13;;;;;;;-1.04;70.85;99627.95;128338;1112;22822;-63
2021/03/21 01:41:37;;;;;;;19.87;10.37;;;;;;;-1.02;71.25;99625.09;128191;1111;23089;-63
2021/03/21 01:44:07;;;;;;;21.73;10.93;;;;;;;-1.04;70.62;99622.60;128322;1111;22926;-63
2021/03/21 01:46:34;;;;;;;21.47;10.77;;;;;;;-1.05;70.63;99620.94;128212;1111;24434;-64
2021/03/21 01:49:23;;;;;;;20.37;10.80;;;;;;;-1.05;70.70;99626.28;128354;1111;23773;-63
2021/03/21 01:51:51;;;;;;;21.63;10.47;;;;;;;-1.06;70.93;99619.27;128144;1111;22820;-63
2021/03/21 01:54:20;;;;;;;19.30;10.20;;;;;;;-1.07;71.12;99622.95;128286;1111;22875;-63
2021/03/21 01:56:48;;;;;;;16.00;8.93;;;;;;;-1.07;70.94;99620.28;125447;1112;23108;-62
2021/03/21 01:59:24;;;;;;;17.47;9.50;;;;;;;-1.10;70.99;99615.29;124042;1111;23129;-62
2021/03/21 02:01:52;;;;;;;22.00;10.93;;;;;;;-1.11;70.83;99611.78;128200;1111;22872;-62
2021/03/21 02:04:20;;;;;;;16.00;8.93;;;;;;;-1.13;71.09;99608.45;128341;1111;22828;-63
2021/03/21 02:07:05;;;;;;;20.73;9.60;;;;;;;-1.15;71.35;99610.47;128164;1112;22823;-63
2021/03/21 02:09:50;;;;;;;20.70;10.43;;;;;;;-1.17;71.37;99609.85;128339;1112;23032;-63
2021/03/21 02:12:42;;;;;;;20.80;9.33;;;;;;;-1.26;71.35;99600.22;128170;1111;23418;-63
2021/03/21 02:15:16;;;;;;;20.37;9.63;;;;;;;-1.24;71.22;99597.37;128250;1111;22977;-63
2021/03/21 02:17:58;;;;;;;14.23;7.07;;;;;;;-1.25;71.75;99604.56;127943;1111;22825;-63
2021/03/21 02:20:28;;;;;;;14.43;8.53;;;;;;;-1.26;71.62;99594.05;128269;1111;22938;-62
2021/03/21 02:23:13;;;;;;;11.50;7.70;;;;;;;-1.26;71.83;99594.05;128185;1112;22914;-63
2021/03/21 02:26:02;;;;;;;17.60;8.23;;;;;;;-1.28;71.75;99593.39;128272;1111;22836;-63
2021/03/21 02:28:56;;;;;;;15.95;8.55;;;;;;;-1.31;71.18;99594.61;126679;1110;23169;-63
2021/03/21 02:31:29;;;;;;;18.17;8.23;;;;;;;-1.33;71.81;99587.77;128348;1111;23613;-63
2021/03/21 02:34:04;;;;;;;14.83;7.80;;;;;;;-1.34;71.48;99583.44;128175;1112;22998;-63
2021/03/21 02:36:36;;;;;;;12.90;7.50;;;;;;;-1.33;71.95;99590.45;128343;1112;22851;-64
2021/03/21 02:39:11;;;;;;;13.53;7.43;;;;;;;-1.34;71.73;99584.27;128128;1111;22970;-63
2021/03/21 02:41:42;;;;;;;12.57;7.10;;;;;;;-1.35;71.73;99579.10;125048;1112;26440;-62
2021/03/21 02:44:26;;;;;;;12.57;7.60;;;;;;;-1.38;71.26;99580.28;128154;1111;23030;-63
2021/03/21 02:46:58;;;;;;;13.10;7.20;;;;;;;-1.40;71.79;99576.95;128368;1112;23635;-63
2021/03/21 02:49:58;;;;;;;15.17;8.27;;;;;;;-1.42;71.23;99576.30;128157;1112;23117;-63
2021/03/21 02:52:44;;;;;;;15.30;7.63;;;;;;;-1.47;71.43;99576.86;127891;1115;22896;-62
2021/03/21 02:55:23;;;;;;;14.70;7.67;;;;;;;-1.51;71.76;99572.05;127964;1115;23179;-62
2021/03/21 02:57:55;;;;;;;11.77;7.20;;;;;;;-1.54;71.92;99572.40;127836;1115;22897;-62
2021/03/21 03:00:32;;;;;;;14.53;7.30;;;;;;;-1.55;71.61;99570.73;127936;1115;23593;-63
2021/03/21 03:03:02;;;;;;;11.57;7.05;;;;;;;-1.59;71.37;99566.78;127789;1114;23659;-63
2021/03/21 03:05:43;;;;;;;10.93;7.63;;;;;;;-1.62;71.81;99564.46;127966;1114;22847;-62
2021/03/21 03:08:42;;;;;;;13.90;6.77;;;;;;;-1.66;71.77;99560.48;127854;1115;24232;-63
2021/03/21 03:11:26;;;;;;;10.85;7.20;;;;;;;-1.69;71.15;99555.48;127970;1114;22904;-63
2021/03/21 03:13:56;;;;;;;11.83;6.77;;;;;;;-1.74;71.41;99561.38;127829;1114;22923;-63
2021/03/21 03:16:25;;;;;;;11.37;6.43;;;;;;;-1.77;71.19;99563.57;127948;1115;22898;-63
2021/03/21 03:19:18;;;;;;;13.93;7.10;;;;;;;-1.81;71.51;99571.93;127817;1115;22938;-63
2021/03/21 03:22:02;;;;;;;11.27;6.83;;;;;;;-1.86;71.58;99576.13;127985;1115;23660;-62
2021/03/21 03:25:03;;;;;;;14.10;7.33;;;;;;;-1.91;71.59;99568.67;127853;1115;22891;-62
2021/03/21 03:28:01;;;;;;;9.53;5.67;;;;;;;-1.96;71.35;99568.36;127963;1114;23502;-62
2021/03/21 03:30:35;;;;;;;11.88;6.80;;;;;;;-2.03;71.37;99571.92;128193;1112;24043;-62
2021/03/21 03:33:07;;;;;;;11.33;6.20;;;;;;;-2.09;71.28;99561.94;128238;1112;23031;-62
2021/03/21 03:35:35;;;;;;;11.93;7.37;;;;;;;-2.17;71.41;99558.33;128136;1111;22849;-61
2021/03/21 03:38:06;;;;;;;10.50;6.30;;;;;;;-2.23;71.25;99556.34;128309;1111;23027;-62
2021/03/21 03:40:38;;;;;;;11.70;7.77;;;;;;;-2.28;71.15;99553.36;128195;1111;22994;-62
2021/03/21 03:43:11;;;;;;;13.73;7.67;;;;;;;-2.36;71.22;99548.08;128021;1111;22836;-62
2021/03/21 03:45:50;;;;;;;12.83;6.60;;;;;;;-2.38;71.62;99550.08;128187;1112;23041;-62
2021/03/21 03:48:36;;;;;;;15.50;9.33;;;;;;;-2.42;71.58;99538.09;128323;1111;22820;-63
2021/03/21 03:51:17;;;;;;;14.33;6.67;;;;;;;-2.40;72.57;99546.75;128224;1111;22844;-63
2021/03/21 03:54:11;;;;;;;12.40;7.60;;;;;;;-2.36;72.79;99547.24;128277;1112;22865;-63
2021/03/21 03:56:51;;;;;;;12.90;7.03;;;;;;;-2.31;73.01;99542.23;128115;1111;22844;-63
2021/03/21 03:59:33;;;;;;;13.47;7.67;;;;;;;-2.28;72.99;99537.34;128290;1112;23014;-62
2021/03/21 04:02:11;;;;;;;14.90;7.97;;;;;;;-2.24;73.20;99537.83;128247;1111;23532;-63
2021/03/21 04:05:04;;;;;;;23.83;13.67;;;;;;;-2.20;73.28;99536.48;128295;1112;22874;-63
2021/03/21 04:07:38;;;;;;;22.20;13.73;;;;;;;-2.15;73.24;99542.11;128124;1112;22858;-63
2021/03/21 04:10:10;;;;;;;16.73;10.77;;;;;;;-2.11;73.17;99532.75;128285;1112;22910;-63
2021/03/21 04:13:03;;;;;;;16.93;9.50;;;;;;;-2.07;72.55;99544.74;128151;1112;22817;-63
2021/03/21 04:15:34;;;;;;;17.30;10.97;;;;;;;-2.05;72.95;99545.41;128303;1111;23805;-62
2021/03/21 04:18:17;;;;;;;13.87;8.57;;;;;;;-2.03;72.88;99538.05;128191;1112;22985;-63
2021/03/21 04:20:46;;;;;;;15.57;9.60;;;;;;;-2.01;72.91;99535.17;128045;1112;22835;-63
2021/03/21 04:23:31;;;;;;;15.07;9.10;;;;;;;-2.00;73.17;99535.00;128258;1111;23652;-63
2021/03/21 04:26:45;;;;;;;16.03;8.77;;;;;;;-1.97;73.00;99531.16;124364;1111;23039;-61
2021/03/21 04:29:18;;;;;;;17.20;9.53;;;;;;;-1.91;73.10;99531.29;128296;1112;22841;-62
2021/03/21 04:31:46;;;;;;;17.40;9.07;;;;;;;-1.87;72.99;99534.41;127927;1110;22848;-63
2021/03/21 04:34:14;;;;;;;18.30;8.77;;;;;;;-1.84;72.97;99528.72;128255;1111;23109;-64
2021/03/21 04:36:43;;;;;;;21.63;12.73;;;;;;;-1.78;73.33;99520.01;128169;1112;23651;-63
2021/03/21 04:39:13;;;;;;;24.97;14.83;;;;;;;-1.72;72.87;99521.11;127997;1111;22898;-64
2021/03/21 04:41:45;;;;;;;24.43;13.77;;;;;;;-1.65;73.04;99524.75;128191;1112;22948;-64
2021/03/21 04:44:23;;;;;;;21.57;13.53;;;;;;;-1.59;73.07;99521.37;128009;1112;24193;-64
2021/03/21 04:46:54;;;;;;;24.77;14.15;;;;;;;-1.55;72.62;99522.64;128239;1111;22858;-64
2021/03/21 04:49:22;;;;;;;20.50;12.73;;;;;;;-1.47;72.64;99523.42;128303;1110;22823;-64
2021/03/21 04:51:50;;;;;;;20.33;10.93;;;;;;;-1.40;73.06;99526.19;128283;1111;23007;-64
2021/03/21 04:54:24;;;;;;;20.87;11.47;;;;;;;-1.33;72.49;99516.45;127932;1111;22847;-64
2021/03/21 04:57:18;;;;;;;15.90;9.13;;;;;;;-1.27;72.38;99520.22;128274;1111;22897;-64
2021/03/21 04:59:46;;;;;;;16.23;9.03;;;;;;;-1.18;72.28;99519.14;128272;1111;22943;-64
2021/03/21 05:02:21;;;;;;;13.55;8.30;;;;;;;-1.11;72.17;99522.73;128277;1111;23686;-62
2021/03/21 05:04:51;;;;;;;18.87;9.53;;;;;;;-1.02;71.94;99520.82;128251;1111;22844;-64
2021/03/21 05:07:31;;;;;;;17.40;9.50;;;;;;;-0.97;71.85;99524.58;128287;1111;23636;-63
2021/03/21 05:10:22;;;;;;;16.30;8.13;;;;;;;-0.91;71.41;99517.68;127962;1112;23063;-67
2021/03/21 05:13:11;;;;;;;32.53;13.30;;;;;;;-0.85;72.06;99522.27;128217;1112;22972;-64
2021/03/21 05:15:51;;;;;;;22.53;11.83;;;;;;;-0.81;71.23;99515.55;128207;1111;22910;-64
2021/03/21 05:18:33;;;;;;;29.33;14.30;;;;;;;-0.79;70.79;99521.55;128081;1110;22979;-64
2021/03/21 05:21:27;;;;;;;27.73;13.17;;;;;;;-0.79;70.89;99519.70;128267;1111;22858;-63
2021/03/21 05:24:07;;;;;;;26.10;13.73;;;;;;;-0.72;71.77;99520.61;128154;1111;23807;-64
2021/03/21 05:26:39;;;;;;;26.23;11.33;;;;;;;-0.75;71.59;99507.63;128255;1111;23101;-64
2021/03/21 05:29:12;;;;;;;23.70;11.53;;;;;;;-0.59;70.97;99513.80;128179;1112;23071;-64
2021/03/21 05:31:41;;;;;;;27.47;13.67;;;;;;;-0.55;70.47;99512.38;128309;1112;22841;-64
2021/03/21 05:34:09;;;;;;;35.00;14.17;;;;;;;-0.49;71.20;99519.67;128200;1111;22838;-64
2021/03/21 05:37:01;;;;;;;22.17;13.80;;;;;;;-0.46;70.97;99512.11;128277;1112;22840;-64
2021/03/21 05:39:31;;;;;;;29.07;13.13;;;;;;;-0.41;70.41;99522.23;128176;1111;23777;-64
2021/03/21 05:42:17;;;;;;;21.40;10.37;;;;;;;-0.39;70.12;99514.84;128318;1111;22838;-64
2021/03/21 05:45:09;;;;;;;17.53;9.37;;;;;;;-0.41;69.89;99512.36;128181;1111;22946;-64
2021/03/21 05:47:48;;;;;;;25.57;11.90;;;;;;;-0.40;70.75;99519.38;128279;1111;22994;-64
2021/03/21 05:51:00;;;;;;;20.32;10.63;;;;;;;-0.42;70.79;99520.57;128143;1112;22836;-63
2021/03/21 05:53:39;;;;;;;17.70;10.30;;;;;;;-0.43;70.43;99522.42;127964;1115;25430;-62
2021/03/21 05:56:28;;;;;;;16.73;9.37;;;;;;;-0.41;71.10;99523.06;126263;1114;23044;-62
2021/03/21 05:59:02;;;;;;;22.07;11.40;;;;;;;-0.37;71.37;99523.52;127958;1114;22899;-62
2021/03/21 06:01:44;;;;;;;23.70;12.90;;;;;;;-0.39;70.69;99521.03;127838;1115;23211;-62
2021/03/21 06:04:53;;;;;;;19.20;10.90;;;;;;;-0.38;70.46;99517.34;127958;1114;23720;-62
2021/03/21 06:07:56;;;;;;;24.47;13.57;;;;;;;-0.38;71.20;99506.63;127586;1118;23693;-62
2021/03/21 06:10:45;;;;;;;18.93;10.97;;;;;;;-0.34;70.69;99509.77;127484;1117;22921;-62
2021/03/21 06:13:28;;;;;;;27.20;13.98;;;;;;;-0.36;71.52;99504.61;127587;1116;22908;-63
2021/03/21 06:16:26;;;;;;;17.77;10.77;;;;;;;-0.33;70.55;99498.05;127457;1118;22992;-63
2021/03/21 06:18:59;;;;;;;17.37;10.80;;;;;;;-0.27;70.70;99501.80;127528;1117;23030;-63
2021/03/21 06:21:35;;;;;;;20.13;12.03;;;;;;;-0.20;70.71;99497.36;127492;1117;22950;-63
2021/03/21 06:24:47;;;;;;;20.13;12.87;;;;;;;-0.17;69.93;99492.47;127576;1118;22930;-63
2021/03/21 06:27:30;;;;;;;22.53;14.07;;;;;;;-0.09;70.45;99497.69;123853;1121;23522;-62
2021/03/21 06:30:19;;;;;;;25.63;13.80;;;;;;;-0.04;69.04;99491.77;127479;1118;22901;-63
2021/03/21 06:33:11;;;;;;;22.55;13.10;;;;;;;-0.05;68.98;99490.94;127442;1116;22877;-63
2021/03/21 06:35:57;;;;;;;23.73;13.53;;;;;;;-0.02;68.92;99490.56;127560;1116;24462;-62
2021/03/21 06:38:56;;;;;;;26.33;14.87;;;;;;;0.04;67.79;99478.24;127533;1116;22865;-63
2021/03/21 06:41:29;;;;;;;;;;;;;;;0.03;69.26;99473.91;127500;1116;22919;-66
2021/03/21 06:44:09;;;;;;;25.77;14.37;;;;;;;0.05;68.58;99463.83;128236;1111;21365;-61
2021/03/21 06:47:08;;;;;;;25.00;14.80;;;;;;;0.08;69.38;99463.45;128264;1111;22934;-61
2021/03/21 06:49:58;;;;;;;22.57;13.27;;;;;;;0.11;68.75;99460.40;128319;1110;23762;-62
2021/03/21 06:53:06;;;;;;;20.47;13.73;;;;;;;0.16;68.04;99451.77;128184;1110;22879;-63
2021/03/21 06:55:52;;;;;;;22.60;13.95;;;;;;;0.20;68.50;99455.72;127711;1111;23084;-62
2021/03/21 06:58:32;;;;;;;21.30;13.87;;;;;;;0.21;68.38;99452.86;128220;1110;22908;-62
2021/03/21 07:01:18;;;;;;;19.60;12.53;;;;;;;0.21;68.89;99449.34;128328;1110;23011;-61
2021/03/21 07:04:19;;;;;;;24.60;13.30;;;;;;;0.22;68.05;99442.97;128799;1106;23737;-62
2021/03/21 07:06:54;;;;;;;26.63;13.27;;;;;;;0.20;68.01;99443.16;128557;1106;22902;-61
2021/03/21 07:09:46;;;;;;;28.80;14.50;;;;;;;0.19;67.92;99443.34;128194;1107;22813;-61
2021/03/21 07:12:23;;;;;;;24.13;15.10;;;;;;;0.19;67.51;99446.86;128407;1105;22862;-62
2021/03/21 07:15:33;;;;;;;23.12;14.53;;;;;;;0.22;68.11;99426.89;129066;1105;23013;-62
2021/03/21 07:18:22;;;;;;;24.23;14.17;;;;;;;0.27;68.89;99436.02;128201;1110;23386;-62
2021/03/21 07:21:06;;;;;;;26.55;15.85;;;;;;;0.35;67.70;99425.14;128285;1110;23003;-62
2021/03/21 07:23:42;;;;;;;28.63;16.17;;;;;;;0.43;67.27;99415.31;128181;1112;22831;-62
2021/03/21 07:26:28;;;;;;;24.03;14.57;;;;;;;0.40;66.49;99419.21;128295;1111;22892;-61
2021/03/21 07:29:30;;;;;;;23.37;14.60;;;;;;;0.42;65.63;99398.41;128153;1112;23009;-62
2021/03/21 07:32:35;;;;;;;22.67;14.20;;;;;;;0.43;65.69;99402.75;128313;1110;22859;-62
2021/03/21 07:35:44;;;;;;;26.43;16.73;;;;;;;0.42;64.94;99402.94;128154;1111;23216;-62
2021/03/21 07:38:35;;;;;;;25.50;14.87;;;;;;;0.45;64.74;99391.80;128166;1111;22844;-62
2021/03/21 07:41:08;;;;;;;25.45;13.70;;;;;;;0.46;64.84;99388.10;128142;1111;22861;-62
2021/03/21 07:43:47;;;;;;;24.50;13.65;;;;;;;0.48;63.25;99376.16;128206;1111;22931;-62
2021/03/21 07:46:34;;;;;;;22.77;14.23;;;;;;;0.51;63.86;99381.14;128258;1111;22886;-62
2021/03/21 07:49:40;;;;;;;22.50;14.50;;;;;;;0.57;63.45;99374.17;128109;1111;22887;-62
2021/03/21 07:52:28;;;;;;;24.37;14.87;;;;;;;0.62;62.42;99372.54;128206;1110;24766;-62
2021/03/21 07:55:36;;;;;;;29.05;14.75;;;;;;;0.65;63.29;99364.11;128210;1108;22851;-61
2021/03/21 07:58:07;;;;;;;23.50;13.67;;;;;;;0.73;63.47;99362.27;128945;1104;23925;-62
2021/03/21 08:00:38;;;;;;;20.53;14.03;;;;;;;0.80;62.58;99355.94;128190;1109;23620;-61
2021/03/21 08:03:12;;;;;;;20.80;13.50;;;;;;;0.88;60.94;99363.80;128377;1105;22940;-61
2021/03/21 08:05:40;;;;;;;28.80;13.60;;;;;;;0.93;59.79;99347.11;128756;1105;22864;-61
2021/03/21 08:08:15;;;;;;;25.13;13.33;;;;;;;0.95;60.27;99348.57;129031;1105;22869;-62
2021/03/21 08:10:42;;;;;;;23.13;13.37;;;;;;;1.02;60.73;99341.36;128862;1105;23686;-62
2021/03/21 08:13:24;;;;;;;23.67;14.67;;;;;;;1.12;59.54;99342.86;128337;1107;22850;-61
2021/03/21 08:15:52;;;;;;;27.60;15.27;;;;;;;1.22;58.74;99335.24;128383;1105;24186;-61
2021/03/21 08:18:31;;;;;;;25.67;14.70;;;;;;;1.22;57.72;99333.39;128917;1105;22928;-62
2021/03/21 08:21:05;;;;;;;25.80;15.47;;;;;;;1.21;57.38;99323.68;128236;1108;22903;-62
2021/03/21 08:23:36;;;;;;;28.03;17.20;;;;;;;1.18;56.39;99321.39;128513;1105;23611;-62
2021/03/21 08:26:06;;;;;;;23.75;15.30;;;;;;;1.18;58.03;99315.20;126934;1106;24732;-62
2021/03/21 08:28:38;;;;;;;31.05;18.45;;;;;;;1.19;58.18;99306.13;129181;1106;22815;-62
2021/03/21 08:31:08;;;;;;;35.47;20.63;;;;;;;1.23;58.40;99316.26;128215;1107;22832;-62
2021/03/21 08:33:42;;;;;;;26.80;16.10;;;;;;;1.29;58.23;99302.04;128478;1105;22843;-62
2021/03/21 08:36:17;;;;;;;22.05;12.55;;;;;;;1.36;58.33;99300.18;128986;1105;22922;-62
2021/03/21 08:39:02;;;;;;;21.45;13.20;;;;;;;1.46;58.24;99298.94;129154;1105;22866;-62
2021/03/21 08:41:30;;;;;;;27.05;15.70;;;;;;;1.53;57.74;99289.88;124917;1105;26453;-62
2021/03/21 08:44:03;;;;;;;27.80;13.30;;;;;;;1.61;57.14;99291.52;129092;1105;23409;-62
2021/03/21 08:46:32;;;;;;;25.73;12.87;;;;;;;1.64;57.36;99286.58;128315;1105;22905;-62
2021/03/21 08:49:16;;;;;;;17.53;11.43;;;;;;;1.69;57.05;99281.42;128474;1106;22883;-62
2021/03/21 08:51:44;;;;;;;19.30;12.27;;;;;;;1.77;57.51;99283.06;128252;1108;23052;-62
2021/03/21 08:54:20;;;;;;;19.70;11.80;;;;;;;1.84;56.87;99275.84;128382;1106;22964;-64
2021/03/21 08:57:05;;;;;;;26.57;12.73;;;;;;;1.91;56.79;99278.50;128355;1106;23037;-62
2021/03/21 08:59:37;;;;;;;18.75;11.35;;;;;;;1.94;56.11;99259.29;129105;1105;22884;-62
2021/03/21 09:02:08;;;;;;;20.10;12.15;;;;;;;1.98;55.29;99264.05;128366;1105;22898;-62
2021/03/21 09:04:38;;;;;;;17.97;11.47;;;;;;;2.00;54.34;99267.35;129175;1105;23007;-63
2021/03/21 09:07:23;;;;;;;18.60;11.53;;;;;;;1.99;54.58;99254.95;128347;1106;22845;-62
2021/03/21 09:10:30;;;;;;;24.05;11.85;;;;;;;2.01;55.24;99255.57;129253;1105;22834;-62
2021/03/21 09:13:02;;;;;;;20.62;11.97;;;;;;;2.08;54.78;99250.17;128490;1105;22845;-62
2021/03/21 09:15:54;;;;;;;17.05;10.80;;;;;;;2.12;54.46;99249.55;129180;1105;22871;-62
2021/03/21 09:18:35;;;;;;;18.05;12.05;;;;;;;2.16;54.44;99241.90;127643;1105;26405;-61
2021/03/21 09:21:15;;;;;;;15.20;10.73;;;;;;;2.21;54.10;99231.32;124250;1109;23078;-61
2021/03/21 09:23:43;;;;;;;18.70;10.30;;;;;;;2.28;53.30;99224.08;128225;1108;22965;-62
2021/03/21 09:26:17;;;;;;;16.93;10.43;;;;;;;2.29;53.26;99233.80;127378;1107;23062;-62
2021/03/21 09:28:55;;;;;;;16.23;10.57;;;;;;;2.32;54.34;99227.97;128258;1108;23678;-62
2021/03/21 09:31:24;;;;;;;15.47;9.40;;;;;;;2.35;52.15;99216.80;128351;1108;23249;-62
2021/03/21 09:34:15;;;;;;;16.33;10.73;;;;;;;2.35;52.59;99211.42;128211;1108;22954;-62
2021/03/21 09:36:58;;;;;;;21.62;11.40;;;;;;;2.36;52.62;99209.56;128428;1108;23551;-62
2021/03/21 09:39:30;;;;;;;18.27;10.73;;;;;;;2.36;52.74;99213.08;128182;1108;22886;-62
2021/03/21 09:41:58;;;;;;;21.27;11.40;;;;;;;2.35;52.69;99216.80;128353;1108;23669;-62
2021/03/21 09:44:29;;;;;;;17.77;10.40;;;;;;;2.36;52.06;99214.94;128277;1108;22840;-62
2021/03/21 09:47:35;;;;;;;21.85;11.55;;;;;;;2.38;52.77;99197.56;128387;1107;22873;-62
2021/03/21 09:50:24;;;;;;;19.55;11.50;;;;;;;2.42;51.40;99195.28;128254;1108;22840;-62
2021/03/21 09:53:25;;;;;;;22.43;11.20;;;;;;;2.43;51.50;99181.62;128339;1108;22868;-62
2021/03/21 09:55:53;;;;;;;17.43;9.83;;;;;;;2.44;51.25;99180.59;128185;1108;23961;-62
2021/03/21 09:58:30;;;;;;;19.25;9.40;;;;;;;2.45;50.96;99179.52;128361;1108;23819;-62
2021/03/21 10:01:05;;;;;;;15.63;9.23;;;;;;;2.49;51.21;99178.06;128253;1107;23410;-62
2021/03/21 10:03:33;;;;;;;16.83;10.40;;;;;;;2.53;50.63;99175.78;128377;1109;22832;-62
2021/03/21 10:06:10;;;;;;;26.50;12.30;;;;;;;2.56;50.66;99166.47;128276;1108;23444;-62
2021/03/21 10:08:56;;;;;;;20.80;11.35;;;;;;;2.56;50.95;99177.22;128361;1108;22995;-62
2021/03/21 10:11:35;;;;;;;15.15;9.65;;;;;;;2.59;51.64;99169.56;128198;1107;22861;-62
2021/03/21 10:14:21;;;;;;;30.10;12.87;;;;;;;2.63;51.24;99164.55;128379;1107;23001;-62
2021/03/21 10:16:52;;;;;;;19.77;10.03;;;;;;;2.68;50.82;99167.42;128254;1108;22818;-62
2021/03/21 10:19:47;;;;;;;31.77;14.77;;;;;;;2.71;51.19;99148.17;128324;1108;24687;-62
2021/03/21 10:22:20;;;;;;;19.50;9.47;;;;;;;2.75;50.92;99154.75;128317;1108;22925;-62
2021/03/21 10:24:50;;;;;;;19.70;9.67;;;;;;;2.82;50.81;99152.86;128315;1108;22814;-62
2021/03/21 10:27:20;;;;;;;20.93;10.70;;;;;;;2.85;50.87;99138.97;128292;1108;23415;-62
2021/03/21 10:30:07;;;;;;;18.77;10.40;;;;;;;2.91;50.82;99135.39;128363;1108;23034;-62
2021/03/21 10:32:35;;;;;;;13.60;9.23;;;;;;;2.99;51.22;99128.94;128341;1108;22898;-62
2021/03/21 10:35:04;;;;;;;12.60;8.50;;;;;;;3.05;50.92;99139.63;128332;1108;23814;-62
2021/03/21 10:37:41;;;;;;;13.03;9.10;;;;;;;3.10;50.31;99130.91;128236;1108;23655;-62
2021/03/21 10:40:11;;;;;;;17.05;10.05;;;;;;;3.16;49.87;99124.66;128310;1107;22863;-62
2021/03/21 10:42:44;;;;;;;16.77;9.60;;;;;;;3.17;49.49;99119.03;128201;1108;22841;-62
2021/03/21 10:45:17;;;;;;;15.30;9.60;;;;;;;3.17;49.72;99105.58;128369;1108;23691;-62
2021/03/21 10:47:46;;;;;;;21.57;10.30;;;;;;;3.20;49.84;99115.91;128232;1107;23888;-62
2021/03/21 10:50:34;;;;;;;15.63;9.63;;;;;;;3.28;49.69;99114.00;128385;1108;23275;-62
2021/03/21 10:53:22;;;;;;;17.07;10.80;;;;;;;3.33;50.17;99108.75;128262;1108;23571;-62
2021/03/21 10:56:09;;;;;;;15.40;8.85;;;;;;;3.36;49.93;99111.84;128375;1108;22862;-62
2021/03/21 10:58:46;;;;;;;15.40;8.65;;;;;;;3.39;49.76;99102.50;128381;1108;22844;-62
2021/03/21 11:01:17;;;;;;;;;;;;;;;3.41;49.98;99092.33;128365;1108;22841;-62
2021/03/21 11:03:58;;;;;;;16.90;10.00;;;;;;;3.43;50.40;99098.33;128365;1108;21392;-62
2021/03/21 11:06:28;;;;;;;15.73;10.13;;;;;;;3.48;50.65;99096.59;128381;1108;22834;-62
2021/03/21 11:09:08;;;;;;;14.53;9.93;;;;;;;3.49;50.25;99092.85;128372;1107;22979;-62
2021/03/21 11:11:54;;;;;;;15.57;9.70;;;;;;;3.46;50.54;99079.03;128403;1108;23671;-63
2021/03/21 11:14:25;;;;;;;16.63;8.93;;;;;;;3.47;49.84;99075.27;128345;1108;22857;-62
2021/03/21 11:17:11;;;;;;;15.25;8.80;;;;;;;3.48;50.62;99074.22;128333;1108;22972;-62
2021/03/21 11:19:47;;;;;;;14.55;9.15;;;;;;;3.54;50.68;99067.95;128289;1108;23870;-62
2021/03/21 11:22:44;;;;;;;15.35;9.90;;;;;;;3.58;49.88;99055.70;128214;1108;22819;-62
2021/03/21 11:25:13;;;;;;;27.50;12.10;;;;;;;3.56;49.31;99052.40;128306;1112;22932;-62
2021/03/21 11:27:47;;;;;;;18.73;11.23;;;;;;;3.54;49.36;99049.10;128191;1111;22981;-62
2021/03/21 11:30:26;;;;;;;15.93;10.53;;;;;;;3.49;49.35;99052.45;128264;1112;23591;-62
2021/03/21 11:33:19;;;;;;;16.13;9.63;;;;;;;3.45;50.33;99032.43;128195;1110;22891;-62
2021/03/21 11:35:50;;;;;;;13.45;9.00;;;;;;;3.49;50.31;99022.83;128269;1111;23689;-62
2021/03/21 11:38:30;;;;;;;13.65;8.45;;;;;;;3.55;50.03;99029.20;128138;1111;22880;-62
2021/03/21 11:41:00;;;;;;;15.15;9.30;;;;;;;3.61;49.27;99030.98;128327;1111;23286;-62
2021/03/21 11:43:30;;;;;;;15.00;9.60;;;;;;;3.66;49.63;99023.05;128198;1111;23068;-62
2021/03/21 11:46:14;;;;;;;15.75;9.30;;;;;;;3.71;50.02;99019.70;128281;1111;22955;-62
2021/03/21 11:48:42;;;;;;;13.67;8.70;;;;;;;3.74;49.60;99017.37;128186;1111;23548;-62
2021/03/21 11:51:11;;;;;;;14.65;8.65;;;;;;;3.77;48.49;99011.52;128266;1112;23826;-62
2021/03/21 11:53:39;;;;;;;13.37;8.83;;;;;;;3.74;47.93;99011.99;128142;1111;23932;-62
2021/03/21 11:56:21;;;;;;;12.77;8.03;;;;;;;3.69;48.49;99011.84;128316;1111;22868;-62
2021/03/21 11:58:49;;;;;;;14.90;9.20;;;;;;;3.67;48.49;99000.45;128079;1110;23955;-62
2021/03/21 12:01:22;;;;;;;14.50;8.90;;;;;;;3.66;48.37;99003.37;128293;1108;22901;-62
2021/03/21 12:03:52;;;;;;;11.80;8.75;;;;;;;3.66;49.13;98990.73;128268;1108;22945;-62
2021/03/21 12:06:49;;;;;;;12.90;8.50;;;;;;;3.66;49.08;98988.03;126295;1108;26157;-61
2021/03/21 12:09:36;;;;;;;15.03;9.83;;;;;;;3.63;48.57;98983.09;128201;1108;22930;-62